Time;durP1;ratioP1;P1;durP2;ratioP2;P2;SDS_P1;SDS_P2;PMS_P1;PMS_P2;Temp;Humidity;BMP_temperature;BMP_pressure;BME280_temperature;BME280_humidity;BME280_pressure;Samples;Min_cycle;Max_cycle;Signal;HPM_P1;HPM_P2
2021/12/11 00:02:09;;;;;;;199.75;109.22;;;;;;;10.52;100.00;99067.34;5066090;28;20380;-63
2021/12/11 00:05:02;;;;;;;203.23;107.38;;;;;;;10.59;100.00;99064.59;5065007;28;20045;-63
2021/12/11 00:07:44;;;;;;;194.43;106.93;;;;;;;10.87;100.00;99069.91;5064758;28;20036;-63
2021/12/11 00:10:40;;;;;;;204.82;108.15;;;;;;;10.52;100.00;99075.09;5044565;28;20049;-64
2021/12/11 00:13:32;;;;;;;192.02;106.28;;;;;;;10.43;100.00;99073.56;5065663;28;20052;-64
2021/12/11 00:16:19;;;;;;;206.07;106.75;;;;;;;10.22;100.00;99080.03;5065909;28;20048;-63
2021/12/11 00:19:27;;;;;;;202.00;109.43;;;;;;;10.33;100.00;99078.06;5064167;28;20040;-64
2021/12/11 00:22:17;;;;;;;207.70;110.57;;;;;;;10.47;100.00;99076.91;5064588;28;20461;-64
2021/12/11 00:25:09;;;;;;;204.13;113.03;;;;;;;10.60;100.00;99079.19;5043795;28;20044;-63
2021/12/11 00:28:07;;;;;;;212.55;114.45;;;;;;;10.54;100.00;99081.03;5062132;28;20072;-63
2021/12/11 00:30:57;;;;;;;203.93;113.78;;;;;;;10.55;100.00;99077.56;5039431;28;20064;-63
2021/12/11 00:33:40;;;;;;;203.32;112.82;;;;;;;10.43;100.00;99083.03;5047749;28;20052;-63
2021/12/11 00:36:34;;;;;;;223.82;114.72;;;;;;;10.31;100.00;99066.09;5061759;28;20343;-63
2021/12/11 00:39:19;;;;;;;229.35;115.65;;;;;;;10.29;100.00;99071.31;5062601;28;20056;-63
2021/12/11 00:42:09;;;;;;;206.95;112.22;;;;;;;10.35;100.00;99081.47;5046987;28;20137;-63
2021/12/11 00:44:56;;;;;;;216.25;114.97;;;;;;;10.30;100.00;99082.44;5030368;28;20480;-64
2021/12/11 00:47:55;;;;;;;241.10;117.10;;;;;;;10.25;100.00;99092.84;5060923;28;20121;-63
2021/12/11 00:50:52;;;;;;;202.52;112.65;;;;;;;10.35;100.00;99098.66;5061248;28;20052;-63
2021/12/11 00:53:54;;;;;;;206.50;110.90;;;;;;;10.23;100.00;99107.47;5050026;28;20606;-63
2021/12/11 00:56:34;;;;;;;214.10;114.65;;;;;;;10.38;100.00;99115.78;5057336;28;20062;-63
2021/12/11 00:59:23;;;;;;;220.90;112.25;;;;;;;10.38;100.00;99116.59;5065165;28;20608;-63
2021/12/11 01:02:06;;;;;;;221.27;115.40;;;;;;;10.26;100.00;99122.88;5065285;28;20056;-63
2021/12/11 01:04:55;;;;;;;217.65;114.13;;;;;;;10.27;100.00;99129.72;5059683;28;20048;-64
2021/12/11 01:07:38;;;;;;;216.52;111.43;;;;;;;10.21;100.00;99127.28;5054446;28;20052;-64
2021/12/11 01:10:35;;;;;;;224.38;117.57;;;;;;;10.22;100.00;99126.38;5050848;28;20072;-63
2021/12/11 01:13:14;;;;;;;206.60;113.65;;;;;;;10.22;100.00;99136.69;5077307;28;20044;-64
2021/12/11 01:16:11;;;;;;;214.68;118.30;;;;;;;10.22;100.00;99131.53;5069687;28;20094;-64
2021/12/11 01:19:06;;;;;;;215.77;116.88;;;;;;;10.13;100.00;99131.72;5060389;28;20457;-64
2021/12/11 01:22:09;;;;;;;221.95;122.97;;;;;;;10.03;100.00;99142.22;5080286;28;20048;-63
2021/12/11 01:24:48;;;;;;;223.20;119.70;;;;;;;10.02;100.00;99138.81;5061620;28;20136;-63
2021/12/11 01:27:38;;;;;;;222.43;121.85;;;;;;;10.10;100.00;99139.50;5071635;28;20136;-64
2021/12/11 01:30:33;;;;;;;241.93;128.07;;;;;;;10.06;100.00;99140.41;5054318;28;20058;-64
2021/12/11 01:33:32;;;;;;;235.13;125.22;;;;;;;9.95;100.00;99140.66;5081987;28;20089;-64
2021/12/11 01:36:09;;;;;;;227.85;125.38;;;;;;;10.00;100.00;99135.41;5078123;28;20060;-64
2021/12/11 01:39:09;;;;;;;232.90;123.60;;;;;;;10.02;100.00;99136.22;5074840;28;20053;-64
2021/12/11 01:41:47;;;;;;;244.73;124.22;;;;;;;10.02;100.00;99141.38;5031065;28;20060;-64
2021/12/11 01:44:40;;;;;;;239.60;124.78;;;;;;;9.97;100.00;99143.19;5049140;28;20495;-64
2021/12/11 01:47:36;;;;;;;239.40;122.00;;;;;;;9.90;100.00;99142.44;5060341;28;20515;-65
2021/12/11 01:50:32;;;;;;;232.82;120.53;;;;;;;9.74;100.00;99142.78;5085048;28;20044;-65
2021/12/11 01:53:30;;;;;;;234.52;122.13;;;;;;;9.68;100.00;99158.34;5071711;28;20041;-64
2021/12/11 01:56:20;;;;;;;256.75;123.35;;;;;;;9.60;100.00;99164.47;5078779;28;20476;-64
2021/12/11 01:59:25;;;;;;;224.32;122.60;;;;;;;9.82;100.00;99159.75;5075141;28;20041;-64
2021/12/11 02:02:26;;;;;;;229.25;122.57;;;;;;;9.80;100.00;99158.13;5073012;28;20140;-64
2021/12/11 02:05:20;;;;;;;244.07;130.95;;;;;;;9.75;100.00;99165.91;5073598;28;20535;-64
2021/12/11 02:08:21;;;;;;;262.85;139.23;;;;;;;9.74;100.00;99176.22;5073791;28;20124;-64
2021/12/11 02:11:08;;;;;;;258.33;138.48;;;;;;;9.88;100.00;99176.84;5072064;28;20041;-64
2021/12/11 02:14:04;;;;;;;266.20;139.27;;;;;;;9.90;100.00;99181.06;5070784;28;20048;-64
2021/12/11 02:16:51;;;;;;;251.40;131.93;;;;;;;9.87;100.00;99175.13;5072271;28;20056;-64
2021/12/11 02:19:44;;;;;;;272.80;138.00;;;;;;;10.00;100.00;99189.44;5071843;28;20770;-64
2021/12/11 02:22:41;;;;;;;276.08;147.32;;;;;;;10.17;100.00;99189.13;5076236;28;20117;-69
2021/12/11 02:25:34;;;;;;;290.90;150.75;;;;;;;10.10;100.00;99195.28;5068364;28;20045;-64
2021/12/11 02:28:45;;;;;;;284.40;150.60;;;;;;;10.24;100.00;99194.13;5052168;28;20147;-65
2021/12/11 02:31:47;;;;;;;280.55;145.10;;;;;;;10.19;100.00;99216.56;5075591;28;20060;-64
2021/12/11 02:35:01;;;;;;;273.88;147.40;;;;;;;10.28;100.00;99224.13;5075963;28;20040;-64
2021/12/11 02:38:10;;;;;;;291.15;147.85;;;;;;;10.45;100.00;99226.34;5069499;28;20084;-64
2021/12/11 02:41:13;;;;;;;301.40;154.93;;;;;;;10.61;100.00;99229.44;5077305;28;20154;-64
2021/12/11 02:44:01;;;;;;;281.42;151.23;;;;;;;10.78;100.00;99229.91;5067473;28;20070;-65
2021/12/11 02:47:03;;;;;;;286.88;148.95;;;;;;;10.89;100.00;99238.25;5070603;28;20075;-64
2021/12/11 02:49:57;;;;;;;268.70;144.25;;;;;;;10.96;100.00;99237.22;5074296;28;20059;-65
2021/12/11 02:53:02;;;;;;;277.60;147.02;;;;;;;11.07;100.00;99245.59;5063287;28;20052;-64
2021/12/11 02:56:21;;;;;;;274.77;141.25;;;;;;;11.25;100.00;99240.88;5082056;28;20044;-65
2021/12/11 02:59:01;;;;;;;270.98;138.82;;;;;;;11.37;100.00;99243.16;5062403;28;20169;-65
2021/12/11 03:02:08;;;;;;;246.57;138.07;;;;;;;11.29;100.00;99245.06;5063872;28;20040;-64
2021/12/11 03:04:54;;;;;;;253.23;135.07;;;;;;;11.57;100.00;99242.69;5071537;28;20477;-64
2021/12/11 03:07:53;;;;;;;253.25;132.20;;;;;;;11.48;100.00;99254.94;5060062;28;20048;-64
2021/12/11 03:10:30;;;;;;;250.02;131.60;;;;;;;11.89;100.00;99258.22;5047454;28;20057;-64
2021/12/11 03:13:19;;;;;;;257.05;131.10;;;;;;;12.49;100.00;99255.69;5060770;28;20131;-64
2021/12/11 03:16:02;;;;;;;236.70;129.65;;;;;;;13.02;100.00;99263.59;5066905;28;20084;-64
2021/12/11 03:18:52;;;;;;;228.68;123.57;;;;;;;13.46;100.00;99271.75;5066836;28;20055;-64
2021/12/11 03:21:44;;;;;;;212.45;120.13;;;;;;;13.89;100.00;99284.97;5062118;28;20531;-65
2021/12/11 03:24:28;;;;;;;224.02;125.63;;;;;;;14.14;100.00;99284.97;5056228;28;20045;-65
2021/12/11 03:27:18;;;;;;;235.43;126.40;;;;;;;14.70;100.00;99282.97;5066623;28;20143;-63
2021/12/11 03:30:02;;;;;;;245.52;123.25;;;;;;;15.86;100.00;99297.47;5066605;28;20053;-64
2021/12/11 03:32:53;;;;;;;227.77;125.57;;;;;;;16.44;96.08;99298.41;5061556;28;20044;-64
2021/12/11 03:35:43;;;;;;;215.15;121.22;;;;;;;16.84;92.57;99301.88;5051010;28;20048;-64
2021/12/11 03:38:34;;;;;;;195.63;113.05;;;;;;;17.18;84.69;99307.19;5077507;28;20054;-64
2021/12/11 03:41:18;;;;;;;211.18;115.03;;;;;;;17.56;80.15;99310.59;5060054;28;20135;-64
2021/12/11 03:44:08;;;;;;;203.98;113.15;;;;;;;17.58;79.02;99313.13;5063109;28;20542;-64
2021/12/11 03:46:54;;;;;;;209.90;112.15;;;;;;;18.21;76.53;99316.94;5063026;28;20797;-64
2021/12/11 03:49:45;;;;;;;196.10;111.75;;;;;;;18.60;72.66;99328.88;5057457;28;20058;-64
2021/12/11 03:52:33;;;;;;;188.07;109.10;;;;;;;18.71;73.75;99324.78;5067153;28;20060;-63
2021/12/11 03:55:29;;;;;;;198.13;109.75;;;;;;;18.75;72.00;99335.94;5065839;28;20439;-64
2021/12/11 03:58:11;;;;;;;201.35;109.25;;;;;;;18.93;69.79;99339.31;5065979;28;20929;-63
2021/12/11 04:01:13;;;;;;;210.18;112.28;;;;;;;19.29;69.46;99342.56;5064835;28;20103;-64
2021/12/11 04:04:08;;;;;;;195.82;111.57;;;;;;;19.87;65.18;99347.16;5058667;28;20464;-64
2021/12/11 04:06:58;;;;;;;219.68;117.18;;;;;;;19.69;63.08;99358.66;5057821;28;20528;-64
2021/12/11 04:09:40;;;;;;;222.43;121.22;;;;;;;19.74;68.04;99344.38;5041895;28;20037;-64
2021/12/11 04:12:33;;;;;;;222.77;123.38;;;;;;;19.77;70.43;99349.47;5042230;28;20123;-64
2021/12/11 04:15:17;;;;;;;220.88;123.78;;;;;;;19.68;67.73;99351.75;5045285;28;20049;-65
2021/12/11 04:18:07;;;;;;;238.73;127.35;;;;;;;19.80;65.32;99356.25;5042010;28;20384;-65
2021/12/11 04:20:57;;;;;;;227.45;123.75;;;;;;;20.02;64.79;99354.13;5027048;28;20119;-66
2021/12/11 04:23:50;;;;;;;225.57;123.95;;;;;;;20.36;61.78;99365.25;5024712;28;20136;-66
2021/12/11 04:26:33;;;;;;;216.15;120.78;;;;;;;20.75;63.09;99365.53;5045132;28;20088;-65
2021/12/11 04:29:24;;;;;;;205.63;116.85;;;;;;;20.65;60.58;99366.16;5044981;28;20045;-65
2021/12/11 04:32:08;;;;;;;214.63;117.65;;;;;;;20.95;69.97;99373.00;5043603;28;20045;-65
2021/12/11 04:34:58;;;;;;;225.20;114.88;;;;;;;20.74;58.00;99374.31;5043503;28;20045;-65
2021/12/11 04:37:41;;;;;;;216.13;112.00;;;;;;;20.91;56.80;99381.97;5044473;28;20140;-65
2021/12/11 04:40:36;;;;;;;220.07;113.20;;;;;;;21.09;60.20;99368.66;5043303;28;20072;-64
2021/12/11 04:43:26;;;;;;;211.40;110.18;;;;;;;20.78;50.34;99381.03;5042527;28;20047;-64
2021/12/11 04:46:13;;;;;;;197.65;110.30;;;;;;;20.72;49.73;99380.56;5045451;28;20044;-64
2021/12/11 04:49:11;;;;;;;;;;;;;;;20.00;49.95;99376.91;5046127;28;20129;-64
2021/12/11 04:52:13;;;;;;;197.60;103.63;;;;;;;20.21;50.74;99380.06;5046235;28;19924;-65
2021/12/11 04:55:31;;;;;;;209.48;106.00;;;;;;;20.71;50.41;99384.09;5032825;28;20059;-63
2021/12/11 05:07:28;;;;;;;210.60;104.55;;;;;;;20.65;46.83;99385.34;5050291;28;20060;-65
2021/12/11 05:10:42;;;;;;;217.23;103.65;;;;;;;19.96;44.99;99375.38;5059510;28;20117;-64
2021/12/11 05:13:25;;;;;;;216.98;112.72;;;;;;;20.13;46.91;99380.50;5061185;28;20147;-64
2021/12/11 05:16:22;;;;;;;260.85;123.85;;;;;;;19.76;46.66;99383.53;5044879;28;20059;-64
2021/12/11 05:18:58;;;;;;;244.05;117.05;;;;;;;20.23;49.48;99379.03;5060588;28;20048;-64
2021/12/11 05:21:48;;;;;;;227.65;108.95;;;;;;;20.56;52.60;99370.16;5045544;28;20683;-64
2021/12/11 05:24:31;;;;;;;196.10;91.93;;;;;;;20.21;40.72;99380.91;5062758;28;20654;-64
2021/12/11 05:27:22;;;;;;;184.85;88.45;;;;;;;20.68;43.13;99390.38;5046413;28;20056;-63
2021/12/11 05:30:05;;;;;;;189.98;89.30;;;;;;;21.35;42.80;99386.28;5063199;28;20049;-64
2021/12/11 05:33:02;;;;;;;179.10;87.55;;;;;;;21.69;47.17;99374.50;5058415;28;20167;-62
2021/12/11 05:35:41;;;;;;;171.38;85.03;;;;;;;21.76;45.35;99371.38;5061535;28;20059;-62
2021/12/11 05:38:35;;;;;;;151.00;82.72;;;;;;;21.69;44.54;99374.50;5058999;28;20563;-63
2021/12/11 05:41:21;;;;;;;155.02;79.38;;;;;;;21.49;41.54;99372.28;5060477;28;20478;-62
2021/12/11 05:44:20;;;;;;;172.43;89.50;;;;;;;21.44;45.09;99369.13;5061208;28;20052;-64
2021/12/11 05:46:57;;;;;;;180.45;90.13;;;;;;;21.37;46.18;99366.91;5062485;28;20047;-64
2021/12/11 05:49:57;;;;;;;167.20;83.55;;;;;;;21.36;42.09;99367.00;5062017;28;20052;-65
2021/12/11 05:52:33;;;;;;;178.60;85.38;;;;;;;21.82;41.73;99358.78;5054986;28;20060;-65
2021/12/11 05:55:31;;;;;;;182.70;86.38;;;;;;;21.64;41.25;99356.41;5068491;28;20109;-64
2021/12/11 05:58:13;;;;;;;173.77;87.32;;;;;;;21.79;47.81;99354.56;5063661;28;20439;-64
2021/12/11 06:01:05;;;;;;;172.23;93.50;;;;;;;21.99;47.05;99362.03;5058473;28;20052;-62
2021/12/11 06:03:48;;;;;;;175.88;91.55;;;;;;;22.09;50.98;99362.28;5056789;28;20071;-64
2021/12/11 06:06:46;;;;;;;159.80;88.43;;;;;;;21.43;49.28;99352.56;5066661;28;20048;-65
2021/12/11 06:09:36;;;;;;;177.40;93.03;;;;;;;21.88;55.68;99343.47;5064042;28;20055;-64
2021/12/11 06:12:28;;;;;;;178.15;90.30;;;;;;;21.72;47.22;99354.13;5066103;28;20048;-63
2021/12/11 06:15:17;;;;;;;145.48;73.97;;;;;;;21.96;44.31;99351.69;5049229;28;20044;-64
2021/12/11 06:18:13;;;;;;;113.60;60.83;;;;;;;21.65;37.49;99352.84;5065904;28;20056;-64
2021/12/11 06:20:57;;;;;;;117.45;58.28;;;;;;;21.94;47.99;99342.25;5066716;28;20480;-63
2021/12/11 06:23:47;;;;;;;62.38;33.53;;;;;;;21.64;39.51;99350.31;5067148;28;20624;-63
2021/12/11 06:26:35;;;;;;;64.40;32.38;;;;;;;22.02;42.71;99340.00;5053487;28;20055;-65
2021/12/11 06:29:25;;;;;;;59.25;29.08;;;;;;;21.80;34.63;99348.38;5059486;28;20056;-64
2021/12/11 06:32:09;;;;;;;52.92;28.48;;;;;;;21.82;38.09;99343.03;5065804;28;20351;-63
2021/12/11 06:35:00;;;;;;;87.82;42.88;;;;;;;21.59;40.30;99339.28;5066919;28;20479;-62
2021/12/11 06:37:42;;;;;;;99.05;44.95;;;;;;;21.95;41.49;99330.81;5066167;28;20053;-63
2021/12/11 06:40:32;;;;;;;106.38;48.10;;;;;;;21.91;39.06;99329.34;5064827;28;20044;-63
2021/12/11 06:43:14;;;;;;;112.25;55.58;;;;;;;22.07;36.34;99333.50;5064406;28;20048;-63
2021/12/11 06:46:04;;;;;;;101.28;54.95;;;;;;;21.59;35.50;99327.03;5068790;28;20557;-63
2021/12/11 06:48:46;;;;;;;114.78;58.13;;;;;;;21.93;38.10;99325.66;5065025;28;20155;-63
2021/12/11 06:51:37;;;;;;;107.75;56.13;;;;;;;21.80;35.81;99313.44;5066311;28;20045;-63
2021/12/11 06:54:25;;;;;;;112.15;57.75;;;;;;;22.03;37.42;99310.19;5067048;28;20127;-63
2021/12/11 06:57:18;;;;;;;138.32;60.65;;;;;;;22.04;41.56;99296.09;5064807;28;20044;-63
2021/12/11 07:00:07;;;;;;;112.25;59.05;;;;;;;22.37;42.11;99287.72;5066209;28;20127;-63
2021/12/11 07:02:49;;;;;;;106.82;57.63;;;;;;;22.45;41.32;99282.78;5062881;28;20117;-63
2021/12/11 07:05:38;;;;;;;105.60;57.67;;;;;;;22.61;41.22;99274.69;5066830;28;20147;-63
2021/12/11 07:08:23;;;;;;;112.97;58.88;;;;;;;22.21;34.90;99279.22;5067300;28;20048;-63
2021/12/11 07:11:13;;;;;;;113.32;59.13;;;;;;;22.38;36.01;99282.38;5066258;28;20056;-62
2021/12/11 07:13:56;;;;;;;107.07;56.63;;;;;;;22.63;39.23;99263.13;5050596;28;20051;-64
2021/12/11 07:16:47;;;;;;;112.28;55.53;;;;;;;22.31;37.29;99262.75;5048244;28;20050;-63
2021/12/11 07:19:24;;;;;;;111.35;58.95;;;;;;;22.44;38.33;99266.19;5064555;28;20048;-63
2021/12/11 07:22:13;;;;;;;110.28;57.65;;;;;;;22.38;38.25;99253.50;5066657;28;20040;-64
2021/12/11 07:25:16;;;;;;;107.38;58.85;;;;;;;22.11;34.95;99247.50;5065685;28;20131;-65
2021/12/11 07:28:08;;;;;;;105.78;54.97;;;;;;;22.31;36.59;99246.16;5057072;28;20055;-65
2021/12/11 07:30:55;;;;;;;95.60;56.22;;;;;;;22.46;36.17;99245.94;5063157;28;20052;-64
2021/12/11 07:33:44;;;;;;;112.10;55.78;;;;;;;22.36;37.88;99241.41;5068471;28;20118;-65
2021/12/11 07:36:28;;;;;;;97.88;53.17;;;;;;;22.44;36.10;99234.69;5066907;28;20143;-63
2021/12/11 07:39:24;;;;;;;104.95;56.42;;;;;;;22.48;37.75;99223.03;5069958;28;20044;-64
2021/12/11 07:42:06;;;;;;;102.72;55.30;;;;;;;22.46;38.69;99222.28;5072294;28;20048;-64
2021/12/11 07:44:56;;;;;;;114.18;55.00;;;;;;;22.51;41.95;99212.28;5067427;28;20491;-65
2021/12/11 07:47:38;;;;;;;130.00;55.55;;;;;;;22.41;40.92;99211.28;5070814;28;20056;-65
2021/12/11 07:50:29;;;;;;;105.90;56.28;;;;;;;22.42;38.34;99212.13;5064171;28;20045;-65
2021/12/11 07:53:12;;;;;;;110.93;58.03;;;;;;;22.40;37.77;99208.75;5071053;28;20048;-66
2021/12/11 07:56:02;;;;;;;121.72;60.45;;;;;;;22.35;38.88;99206.44;5066294;28;20044;-65
2021/12/11 07:58:45;;;;;;;134.10;60.92;;;;;;;22.37;37.92;99199.31;5049081;28;20055;-62
2021/12/11 08:01:37;;;;;;;119.35;58.38;;;;;;;22.41;36.32;99199.94;5065132;28;20419;-65
2021/12/11 08:04:21;;;;;;;112.68;59.03;;;;;;;22.37;38.56;99194.06;5064062;28;20076;-63
2021/12/11 08:07:11;;;;;;;107.13;54.45;;;;;;;22.29;36.58;99196.38;5063994;28;20512;-65
2021/12/11 08:09:53;;;;;;;115.68;56.90;;;;;;;22.29;36.75;99195.53;5048220;28;20045;-65
2021/12/11 08:12:43;;;;;;;122.30;57.45;;;;;;;22.26;37.36;99195.75;5069434;28;20040;-63
2021/12/11 08:15:26;;;;;;;112.82;57.42;;;;;;;22.31;35.99;99186.63;5068446;28;20047;-65
2021/12/11 08:18:20;;;;;;;120.10;57.85;;;;;;;22.22;35.50;99181.16;5066725;28;20052;-65
2021/12/11 08:21:04;;;;;;;117.07;55.15;;;;;;;22.30;36.54;99176.22;5064454;28;20225;-65
2021/12/11 08:23:56;;;;;;;100.78;53.97;;;;;;;22.33;39.53;99176.00;5066165;28;20055;-64
2021/12/11 08:26:41;;;;;;;101.47;53.63;;;;;;;22.21;39.74;99171.59;5069675;28;20096;-64
2021/12/11 08:29:30;;;;;;;98.50;51.97;;;;;;;22.13;37.97;99174.75;5068769;28;20047;-65
2021/12/11 08:32:19;;;;;;;106.43;51.90;;;;;;;22.15;38.52;99172.88;5068842;28;20136;-65
2021/12/11 08:35:12;;;;;;;102.53;51.85;;;;;;;22.14;38.66;99176.44;5065356;28;20060;-64
2021/12/11 08:37:55;;;;;;;106.40;53.00;;;;;;;22.11;38.29;99166.97;5053916;28;20049;-64
2021/12/11 08:40:48;;;;;;;93.85;47.88;;;;;;;22.02;35.63;99170.28;5069118;28;20046;-63
2021/12/11 08:43:30;;;;;;;100.38;47.95;;;;;;;22.05;34.28;99166.56;5070597;28;20052;-63
2021/12/11 08:46:27;;;;;;;89.88;43.47;;;;;;;21.99;35.16;99167.00;5071275;28;20055;-64
2021/12/11 08:49:17;;;;;;;69.78;34.83;;;;;;;21.95;33.23;99170.78;5068083;28;20048;-64
2021/12/11 08:52:12;;;;;;;69.82;34.05;;;;;;;21.95;34.37;99174.22;5049701;28;20679;-64
2021/12/11 08:54:57;;;;;;;69.93;32.78;;;;;;;21.94;34.56;99167.31;5070247;28;20055;-63
2021/12/11 08:57:46;;;;;;;58.13;30.50;;;;;;;21.86;34.33;99160.91;5064149;28;20131;-64
2021/12/11 09:00:48;;;;;;;56.35;28.17;;;;;;;21.80;31.82;99158.69;5061814;28;20109;-63
2021/12/11 09:04:00;;;;;;;51.08;26.17;;;;;;;21.79;33.93;99164.91;5065692;28;20547;-64
2021/12/11 09:07:02;;;;;;;57.45;24.50;;;;;;;21.78;32.99;99158.81;5068823;28;20126;-64
2021/12/11 09:10:10;;;;;;;43.33;21.35;;;;;;;21.72;33.40;99157.41;5064273;28;20112;-62
2021/12/11 09:13:11;;;;;;;39.45;21.40;;;;;;;21.75;33.49;99148.50;5066596;28;20060;-63
2021/12/11 09:16:08;;;;;;;37.88;21.55;;;;;;;21.71;33.34;99145.25;5046773;28;20040;-64
2021/12/11 09:19:14;;;;;;;42.65;20.70;;;;;;;21.68;30.60;99148.09;5067627;28;20535;-63
2021/12/11 09:22:05;;;;;;;48.15;22.25;;;;;;;21.61;33.51;99141.59;5063142;28;20110;-64
2021/12/11 09:24:57;;;;;;;45.38;21.17;;;;;;;21.58;36.70;99143.56;5067628;28;20174;-64
2021/12/11 09:27:52;;;;;;;49.17;23.23;;;;;;;21.53;32.94;99141.25;5050367;28;20141;-63
2021/12/11 09:30:41;;;;;;;54.30;24.38;;;;;;;21.53;31.90;99143.03;5062108;28;20071;-62
2021/12/11 09:33:36;;;;;;;54.13;26.50;;;;;;;21.50;33.35;99133.59;5061483;28;20055;-62
2021/12/11 09:36:30;;;;;;;45.70;25.23;;;;;;;21.41;32.01;99138.59;5061476;28;20124;-63
2021/12/11 09:39:34;;;;;;;48.50;25.25;;;;;;;21.42;33.40;99129.81;5048335;28;20048;-61
2021/12/11 09:42:09;;;;;;;48.97;24.63;;;;;;;21.43;34.39;99131.50;5066187;28;20092;-64
2021/12/11 09:45:06;;;;;;;51.10;24.92;;;;;;;21.32;35.69;99134.81;5066426;28;20158;-65
2021/12/11 09:47:53;;;;;;;56.40;28.40;;;;;;;21.29;34.39;99140.28;5072669;28;20151;-63
2021/12/11 09:50:53;;;;;;;59.50;31.45;;;;;;;21.28;36.79;99139.44;5071433;28;20144;-63
2021/12/11 09:53:49;;;;;;;62.30;32.67;;;;;;;21.27;37.41;99129.91;5060704;28;20062;-64
2021/12/11 09:57:14;;;;;;;71.68;36.45;;;;;;;21.26;38.65;99130.00;5060830;28;20057;-63
2021/12/11 10:00:06;;;;;;;83.32;39.15;;;;;;;21.19;37.81;99129.56;5066030;28;20044;-64
2021/12/11 10:02:56;;;;;;;74.28;36.58;;;;;;;21.13;36.66;99129.94;5065020;28;20056;-61
2021/12/11 10:05:56;;;;;;;69.72;35.35;;;;;;;21.16;37.37;99123.63;5066570;28;20106;-65
2021/12/11 10:09:08;;;;;;;56.50;30.65;;;;;;;21.08;34.94;99126.75;5047599;28;20049;-64
2021/12/11 10:11:59;;;;;;;61.40;30.05;;;;;;;21.05;34.96;99120.91;5040134;28;20431;-63
2021/12/11 10:14:55;;;;;;;76.70;37.53;;;;;;;21.02;36.53;99124.56;5039123;28;20052;-63
2021/12/11 10:17:50;;;;;;;75.72;38.03;;;;;;;20.98;38.69;99121.31;5041276;28;20677;-61
2021/12/11 10:20:53;;;;;;;75.95;34.63;;;;;;;20.89;38.82;99132.38;5024529;28;20053;-66
2021/12/11 10:23:39;;;;;;;66.22;31.80;;;;;;;20.83;37.38;99131.94;5043351;28;20523;-64
2021/12/11 10:26:32;;;;;;;62.10;30.23;;;;;;;20.77;38.08;99143.63;5043823;28;20138;-64
2021/12/11 10:29:15;;;;;;;72.43;29.52;;;;;;;20.72;36.56;99143.09;5044618;28;20148;-64
2021/12/11 10:32:10;;;;;;;64.35;29.05;;;;;;;20.68;38.33;99138.16;5044938;28;20136;-63
2021/12/11 10:35:06;;;;;;;69.05;29.48;;;;;;;20.54;39.60;99136.41;5038523;28;20059;-62
2021/12/11 10:37:56;;;;;;;66.03;30.73;;;;;;;20.41;41.70;99130.28;5038210;28;20048;-64
2021/12/11 10:40:50;;;;;;;67.32;29.65;;;;;;;20.25;43.44;99141.69;5043068;28;20052;-64
2021/12/11 10:43:46;;;;;;;72.65;31.27;;;;;;;20.13;43.97;99134.56;5042815;28;20048;-66
2021/12/11 10:46:45;;;;;;;73.13;30.60;;;;;;;19.95;41.65;99130.50;5042397;28;20061;-64
2021/12/11 10:49:28;;;;;;;69.50;30.13;;;;;;;19.81;45.17;99127.84;5040929;28;20704;-64
2021/12/11 10:52:22;;;;;;;66.72;29.50;;;;;;;19.69;44.13;99131.22;5035898;28;20157;-65
2021/12/11 10:55:08;;;;;;;63.58;28.88;;;;;;;19.58;45.71;99138.84;5053050;28;20059;-61
2021/12/11 10:57:59;;;;;;;63.00;27.40;;;;;;;19.51;43.59;99137.53;5042341;28;20107;-61
2021/12/11 11:01:07;;;;;;;57.97;28.17;;;;;;;19.44;43.12;99140.47;5060888;28;20149;-62
2021/12/11 11:03:54;;;;;;;63.63;28.63;;;;;;;19.27;44.12;99135.38;5055534;28;20076;-63
2021/12/11 11:06:45;;;;;;;75.60;31.25;;;;;;;19.19;46.31;99132.38;5059902;28;20045;-63
2021/12/11 11:09:28;;;;;;;67.22;28.83;;;;;;;19.06;47.96;99126.19;5059640;28;20051;-64
2021/12/11 11:12:22;;;;;;;69.28;31.08;;;;;;;18.96;49.22;99128.47;5057819;28;20040;-64
2021/12/11 11:15:12;;;;;;;70.97;32.63;;;;;;;18.79;52.27;99122.53;5065431;28;20064;-65
2021/12/11 11:17:57;;;;;;;85.30;31.83;;;;;;;18.62;51.14;99137.34;5066464;28;20138;-65
2021/12/11 11:20:53;;;;;;;74.40;31.20;;;;;;;18.47;55.74;99132.94;5055930;28;20045;-64
2021/12/11 11:23:36;;;;;;;71.68;30.77;;;;;;;18.29;55.54;99133.94;5064456;28;20056;-64
2021/12/11 11:26:35;;;;;;;76.50;31.83;;;;;;;18.16;59.46;99133.78;5051744;28;20131;-65
2021/12/11 11:29:28;;;;;;;87.00;34.03;;;;;;;18.02;58.19;99140.66;5065925;28;20139;-63
2021/12/11 11:32:31;;;;;;;80.30;35.08;;;;;;;17.91;61.38;99136.84;5065248;28;20048;-63
2021/12/11 11:35:24;;;;;;;82.03;38.25;;;;;;;17.83;63.56;99136.41;5063745;28;20435;-63
2021/12/11 11:38:08;;;;;;;81.72;36.90;;;;;;;17.66;66.00;99127.75;5063751;28;20688;-65
2021/12/11 11:41:02;;;;;;;85.18;38.00;;;;;;;17.48;70.38;99129.53;5059593;28;20055;-69
2021/12/11 11:43:46;;;;;;;90.60;37.80;;;;;;;17.32;69.13;99133.84;5057020;28;20052;-65
2021/12/11 11:46:36;;;;;;;93.13;38.45;;;;;;;17.32;70.67;99141.66;5047530;28;20388;-66
2021/12/11 11:49:27;;;;;;;94.95;38.90;;;;;;;17.14;70.74;99141.66;5050076;28;20048;-67
2021/12/11 11:52:19;;;;;;;82.20;38.90;;;;;;;17.02;70.39;99134.41;5064871;28;20056;-67
2021/12/11 11:55:19;;;;;;;92.70;39.00;;;;;;;16.93;72.29;99137.47;5068248;28;20542;-66
2021/12/11 11:57:56;;;;;;;85.20;40.50;;;;;;;16.82;76.08;99138.00;5063085;28;20052;-65
2021/12/11 12:00:53;;;;;;;91.55;39.78;;;;;;;16.71;75.46;99142.03;5056813;28;20048;-68
2021/12/11 12:03:43;;;;;;;96.68;39.92;;;;;;;16.67;75.83;99150.91;5063321;28;20053;-62
2021/12/11 12:06:35;;;;;;;99.72;41.30;;;;;;;16.58;75.87;99144.34;5066031;28;20048;-62
2021/12/11 12:09:25;;;;;;;95.30;41.58;;;;;;;16.57;77.35;99144.41;5050469;28;20044;-62
2021/12/11 12:12:16;;;;;;;85.38;42.33;;;;;;;16.49;77.43;99154.31;5069236;28;20728;-62
2021/12/11 12:15:01;;;;;;;96.18;41.28;;;;;;;16.42;78.67;99161.56;5065290;28;20553;-62
2021/12/11 12:17:50;;;;;;;107.45;43.28;;;;;;;16.37;80.95;99155.72;5055863;28;20403;-64
2021/12/11 12:20:34;;;;;;;96.97;43.50;;;;;;;16.32;81.32;99155.94;5064264;28;20071;-64
2021/12/11 12:23:31;;;;;;;98.05;43.53;;;;;;;16.27;82.23;99160.50;5061427;28;20037;-63
2021/12/11 12:26:34;;;;;;;94.20;41.95;;;;;;;16.20;82.17;99164.31;5059416;28;20076;-62
2021/12/11 12:29:18;;;;;;;111.45;46.90;;;;;;;16.13;83.62;99169.81;4708084;28;10001551;-62
2021/12/11 12:32:36;;;;;;;111.65;45.40;;;;;;;16.07;83.97;99170.94;5056063;28;20515;-65
2021/12/11 12:35:19;;;;;;;115.70;44.83;;;;;;;15.96;83.39;99174.00;5059045;28;20048;-64
2021/12/11 12:38:13;;;;;;;100.18;45.38;;;;;;;15.92;83.17;99177.66;5046707;28;20052;-63
2021/12/11 12:41:01;;;;;;;111.53;47.92;;;;;;;15.91;85.43;99180.31;5046304;28;20102;-64
2021/12/11 12:47:22;;;;;;;137.23;46.58;;;;;;;15.85;87.38;99189.25;5057239;28;20415;-63
2021/12/11 12:50:19;;;;;;;118.57;45.42;;;;;;;15.92;83.50;99198.47;5062234;28;20127;-63
2021/12/11 12:53:02;;;;;;;133.00;49.85;;;;;;;15.88;83.26;99206.47;5062841;28;20091;-65
2021/12/11 12:56:04;;;;;;;102.50;43.47;;;;;;;15.78;83.07;99199.97;5027716;28;20045;-65
2021/12/11 12:58:57;;;;;;;139.23;46.28;;;;;;;15.65;84.13;99194.44;5029765;28;20059;-63
2021/12/11 13:01:49;;;;;;;115.82;46.22;;;;;;;15.59;85.79;99207.69;5043827;28;20524;-63
2021/12/11 13:04:37;;;;;;;114.20;47.33;;;;;;;15.48;86.14;99205.53;4694824;28;10001304;-64
2021/12/11 13:07:26;;;;;;;130.15;49.80;;;;;;;15.34;89.09;99207.81;5039251;28;20127;-62
2021/12/11 13:10:24;;;;;;;122.47;51.20;;;;;;;15.27;89.83;99220.19;5040692;28;20160;-63